Terminal Aerodrome Forecast
Issued by NWS Newport/Morehead City, NC

Home | Current Version | Previous Version | Text Only | Print | Product List | Glossary Off
Versions: 1 2 3 4 5 6 7 8 9 10 11 12 13 14 15

640
FTUS42 KMHX 260533
TAFEWN
TAF
KEWN 260533Z 2606/2706 20005KT P6SM SKC
     FM261500 22012G19KT P6SM FEW070 FEW250
     FM270000 21009KT P6SM FEW250=

USA.gov is the U.S. government's official web portal to all federal, state and local government web resources and services.